« Back
NWS Peachtree City, Ga » Text Product » ATL Terminal Aerodrome Forecast


Printer-friendly Version
Current Version              Previous Versions:   1  2  3  4  5  6  7  8  9  

Terminal Aerodrome Forecast

937
FTUS42 KFFC 111547 AAB
TAFATL
TAF AMD
KATL 111547Z 1116/1218 05004KT P6SM FEW050
     FM111900 30004KT P6SM FEW050
     FM120000 01004KT P6SM SCT040 SCT200
     FM120300 02004KT P6SM SCT035 SCT200
     FM120900 06004KT P6SM BKN030
     FM121500 30005KT P6SM BKN025=

USA.gov is the U.S. government's official web portal to all federal, state and local government web resources and services.